Share

Greybull, WY

South Big Horn County (KGEY) Elev 3934 ft | 44.52 °N, 108.08 °W | Change Station

Current weather conditions updated 39 minutes ago

Clear
Clear
46 °F
Feels Like 43 °F
N
6
Wind Variable Wind from West
Sunrise 6:21 AM
Sunset 8:01 PM
Moon Waning Gibbous

Today is forecast to be nearly the same temperature as yesterday.

Pressure 29.84 in
Visibility 10.0 miles
Clouds Clear
Windchill 43 °F
Dew Point 28 °F
Humidity 50%
Rainfall 0.00 in
Snow Depth Not available.
UV 0 out of 16
Pollen 10.30 out of 12
Air Quality Not available.
Flu Activity Sporadic
METAR KGEY 190553Z AUTO 26005KT 10SM CLR 08/M02 A2987 RMK AO2 SLP105 T00781022 10189 20067 53018

More Conditions Fewer Conditions

Pressure 29.84 in
Visibility 10.0 miles
Clouds Clear
Windchill 43 °F
Dew Point 28 °F
Humidity 50%
Rainfall 0.00 in
Snow Depth Not available.
UV 0 out of 16
Pollen 10.30 out of 12
Air Quality Not available.
Flu Activity Sporadic
METAR KGEY 190553Z AUTO 26005KT 10SM CLR 08/M02 A2987 RMK AO2 SLP105 T00781022 10189 20067 53018

More Conditions Fewer Conditions

10-Day Weather Forecast

Almanac

Astronomy

Apr. 19, 2014 Rise Set
Actual Time 6:21 AM MDT 8:01 PM MDT
Civil Twilight 5:50 AM MDT 8:32 PM MDT
Nautical Twilight 5:13 AM MDT 9:10 PM MDT
Astronomical Twilight 4:33 AM MDT 9:50 PM MDT
Moon No Moon Rise 9:37 AM MDT
Length of Visible Light 14h 42m
Length of Day
13h 40m
Tomorrow will be 2m 54s longer.
Waning Gibbous, 82% of the Moon is Illuminated
Today
Waning Gibbous
Apr 22
Last Quarter
Apr 29
New
May 6
First Quarter
May 14
Full

Today's Extremes

State Highs State Lows

Community

  • Sunset Silhouettes
    Sunset Silhouettes
  • FL sunset Perico Isle
    FL sunset Perico Isle
  • Cloudy spring view
    Cloudy spring view
  • Old barn
    Old barn
  • What's for Lunch?
    What's for Lunch?

WunderPhotos

Upload Photos

1,702,653 photos uploaded!

WunderBlogs® & News

Nearby

Snow Depth

Station Depth Elevation
Bald Mountain 88 in 9380 ft
Bone Springs Divide 75 in 9350 ft
Shell Creek 72 in 9580 ft
Burgess Junction 57 in 7880 ft
Sucker Creek 63 in 8880 ft

Coastal Water Temperatures

Place Temperature
No Stations Reporting

Earthquake Activity

City Distance Mag. Time & Date
No recent earthquake activity has been reported nearby.
Minimum magnitude displayed is 2.5.

Nearby Weather Stations

Station Location Temp. Windchill Dew Point Humidity Wind Precip. Elev Updated Type
West Basin, BASIN, WY 44.4 °F 44 °F 26 °F 49% WNW  at  0.0 mph 0.00 in / hr 3873 ft 12:25 AM MDT Normal
Basin, WY 43.4 °F 43 °F 30 °F 60% NE  at  0.0 mph 0.00 in / hr 4537 ft 12:28 AM MDT Normal
MesoWest BALD MTN. , Shell, WY 31 °F 31 °F - - West  at  2 mph 0.00 in / hr 9379 ft 11:00 PM MDT MADIS

Show More Stations Show Fewer Stations

What do you think?

We're not finished. Please let us know what you like, what you don't like, and what you are still missing.